createdAt,value
2023-03-18T00:02:25.947Z,7.50
2023-03-18T00:04:52.615Z,7.50
2023-03-18T00:07:19.297Z,7.40
2023-03-18T00:09:45.752Z,7.07
2023-03-18T00:12:12.059Z,7.20
2023-03-18T00:14:38.743Z,9.50
2023-03-18T00:17:05.688Z,7.55
2023-03-18T00:19:32.114Z,8.32
2023-03-18T00:21:58.465Z,6.22
2023-03-18T00:24:24.867Z,8.30
2023-03-18T00:26:51.145Z,7.35
2023-03-18T00:29:17.430Z,8.05
2023-03-18T00:31:43.814Z,6.32
2023-03-18T00:34:12.408Z,7.47
2023-03-18T00:36:38.924Z,7.65
2023-03-18T00:39:05.980Z,8.88
2023-03-18T00:41:32.677Z,6.88
2023-03-18T00:43:59.002Z,6.50
2023-03-18T00:46:35.976Z,8.57
2023-03-18T00:49:05.684Z,7.38
2023-03-18T00:51:34.442Z,6.10
2023-03-18T00:54:03.294Z,7.82
2023-03-18T00:56:31.295Z,8.10
2023-03-18T00:58:57.720Z,5.78
2023-03-18T01:01:24.943Z,6.13
2023-03-18T01:06:22.849Z,7.40
2023-03-18T01:08:50.530Z,5.63
2023-03-18T01:11:16.947Z,8.68
2023-03-18T01:13:43.839Z,7.20
2023-03-18T01:16:10.802Z,10.90
2023-03-18T01:18:38.042Z,5.63
2023-03-18T01:23:31.184Z,7.22
2023-03-18T01:25:58.266Z,6.32
2023-03-18T01:28:24.668Z,8.70
2023-03-18T01:30:50.987Z,6.38
2023-03-18T01:33:17.263Z,6.28
2023-03-18T01:35:43.626Z,6.53
2023-03-18T01:38:09.928Z,7.43
2023-03-18T01:40:38.292Z,9.18
2023-03-18T01:43:10.552Z,7.15
2023-03-18T01:45:36.891Z,5.72
2023-03-18T01:48:03.428Z,9.43
2023-03-18T01:50:35.346Z,9.55
2023-03-18T01:53:06.644Z,7.78
2023-03-18T01:55:33.985Z,6.82
2023-03-18T02:00:28.230Z,7.03
2023-03-18T02:02:54.675Z,7.22
2023-03-18T02:07:50.767Z,10.70
2023-03-18T02:10:26.322Z,9.00
2023-03-18T02:12:59.864Z,7.88
2023-03-18T02:15:27.311Z,7.75
2023-03-18T02:17:59.481Z,6.20
2023-03-18T02:20:40.528Z,6.32
2023-03-18T02:23:21.598Z,6.93
2023-03-18T02:26:13.276Z,5.45
2023-03-18T02:28:41.460Z,8.52
2023-03-18T02:31:11.783Z,5.22
2023-03-18T02:33:41.196Z,8.20
2023-03-18T02:36:13.405Z,6.07
2023-03-18T02:38:44.104Z,8.63
2023-03-18T02:41:20.176Z,7.47
2023-03-18T02:43:47.582Z,5.38
2023-03-18T02:46:43.213Z,8.60
2023-03-18T02:49:09.975Z,8.60
2023-03-18T02:51:37.069Z,8.90
2023-03-18T02:54:07.599Z,7.53
2023-03-18T02:56:34.444Z,7.07
2023-03-18T02:59:00.763Z,5.30
2023-03-18T03:01:27.343Z,5.97
2023-03-18T03:03:53.685Z,4.72
2023-03-18T03:06:19.976Z,8.27
2023-03-18T03:08:46.488Z,6.90
2023-03-18T03:11:12.967Z,7.97
2023-03-18T03:13:41.444Z,6.85
2023-03-18T03:16:09.070Z,8.00
2023-03-18T03:18:35.454Z,7.38
2023-03-18T03:21:01.781Z,6.25
2023-03-18T03:23:28.085Z,6.75
2023-03-18T03:25:54.429Z,6.85
2023-03-18T03:28:21.109Z,6.00
2023-03-18T03:30:47.478Z,8.18
2023-03-18T03:33:13.860Z,6.78
2023-03-18T03:35:40.630Z,6.75
2023-03-18T03:38:07.438Z,7.25
2023-03-18T03:40:34.100Z,7.00
2023-03-18T03:43:00.725Z,5.70
2023-03-18T03:45:27.354Z,8.65
2023-03-18T03:47:53.848Z,5.55
2023-03-18T03:50:20.370Z,7.57
2023-03-18T03:52:46.917Z,7.15
2023-03-18T03:55:16.509Z,5.03
2023-03-18T03:57:43.176Z,7.57
2023-03-18T04:00:12.587Z,5.63
2023-03-18T04:02:40.711Z,5.15
2023-03-18T04:05:07.953Z,6.35
2023-03-18T04:10:00.509Z,7.07
2023-03-18T04:12:26.870Z,6.45
2023-03-18T04:14:53.188Z,5.80
2023-03-18T04:17:19.486Z,5.15
2023-03-18T04:19:45.827Z,4.70
2023-03-18T04:22:12.260Z,6.75
2023-03-18T04:24:38.649Z,6.85
2023-03-18T04:27:05.200Z,8.38
2023-03-18T04:29:31.531Z,5.80
2023-03-18T04:31:57.823Z,5.45
2023-03-18T04:34:24.320Z,8.30
2023-03-18T04:36:51.031Z,6.85
2023-03-18T04:39:17.767Z,6.57
2023-03-18T04:41:44.171Z,7.53
2023-03-18T04:44:11.117Z,6.95
2023-03-18T04:46:37.436Z,6.80
2023-03-18T04:49:03.788Z,6.82
2023-03-18T04:51:30.105Z,7.32
2023-03-18T04:53:56.458Z,6.00
2023-03-18T04:56:23.413Z,7.47
2023-03-18T04:58:49.801Z,7.05
2023-03-18T05:01:16.354Z,7.00
2023-03-18T05:03:42.776Z,7.53
2023-03-18T05:06:16.082Z,6.28
2023-03-18T05:11:08.634Z,6.53
2023-03-18T05:13:34.921Z,5.90
2023-03-18T05:16:01.369Z,8.15
2023-03-18T05:18:27.788Z,5.63
2023-03-18T05:20:54.097Z,6.30
2023-03-18T05:23:20.377Z,7.07
2023-03-18T05:25:49.052Z,5.47
2023-03-18T05:28:15.382Z,7.80
2023-03-18T05:30:41.676Z,5.85
2023-03-18T05:33:08.057Z,5.45
2023-03-18T05:35:34.717Z,6.57
2023-03-18T05:38:01.182Z,6.45
2023-03-18T05:40:27.624Z,7.28
2023-03-18T05:42:56.491Z,5.72
2023-03-18T05:45:23.474Z,6.75
2023-03-18T05:47:49.849Z,8.95
2023-03-18T05:50:38.338Z,7.40
2023-03-18T05:53:05.425Z,6.78
2023-03-18T05:55:32.846Z,9.38
2023-03-18T05:57:59.946Z,7.40
2023-03-18T06:00:28.016Z,6.10
2023-03-18T06:02:54.694Z,5.80
2023-03-18T06:05:22.943Z,6.28
2023-03-18T06:07:49.287Z,7.78
2023-03-18T06:10:16.530Z,6.47
2023-03-18T06:12:42.956Z,6.55
2023-03-18T06:15:10.517Z,6.13
2023-03-18T06:17:37.432Z,6.03
2023-03-18T06:20:06.413Z,6.25
2023-03-18T06:22:32.700Z,6.28
2023-03-18T06:24:59.015Z,6.40
2023-03-18T06:27:25.334Z,6.45
2023-03-18T06:29:51.877Z,6.75
2023-03-18T06:32:18.358Z,6.22
2023-03-18T06:34:44.749Z,7.95
2023-03-18T06:37:11.230Z,12.20
2023-03-18T06:39:39.480Z,7.78
2023-03-18T06:42:07.238Z,7.45
2023-03-18T06:44:33.546Z,7.57
2023-03-18T06:46:59.857Z,10.90
2023-03-18T06:49:26.183Z,8.32
2023-03-18T06:51:52.499Z,6.75
2023-03-18T06:54:18.793Z,8.57
2023-03-18T06:56:46.340Z,7.55
2023-03-18T06:59:12.791Z,6.38
2023-03-18T07:01:39.180Z,6.65
2023-03-18T07:04:05.545Z,7.65
2023-03-18T07:06:32.004Z,7.68
2023-03-18T07:08:58.770Z,6.75
2023-03-18T07:11:25.170Z,7.40
2023-03-18T07:13:51.965Z,6.53
2023-03-18T07:16:19.095Z,7.85
2023-03-18T07:18:45.591Z,9.50
2023-03-18T07:21:12.128Z,7.35
2023-03-18T07:23:38.400Z,8.52
2023-03-18T07:26:04.987Z,7.35
2023-03-18T07:28:31.350Z,8.45
2023-03-18T07:30:57.650Z,6.93
2023-03-18T07:33:23.985Z,8.68
2023-03-18T07:35:50.357Z,7.57
2023-03-18T07:38:16.734Z,9.10
2023-03-18T07:40:43.068Z,6.65
2023-03-18T07:43:09.437Z,8.93
2023-03-18T07:45:35.742Z,6.78
2023-03-18T07:48:02.073Z,10.00
2023-03-18T07:50:28.501Z,7.05
2023-03-18T07:52:54.836Z,7.00
2023-03-18T07:55:21.131Z,6.82
2023-03-18T07:57:47.412Z,9.25
2023-03-18T08:00:14.350Z,8.02
2023-03-18T08:02:41.366Z,9.15
2023-03-18T08:05:08.222Z,8.80
2023-03-18T08:07:35.684Z,7.80
2023-03-18T08:10:02.430Z,8.00
2023-03-18T08:12:41.438Z,8.35
2023-03-18T08:15:15.076Z,9.10
2023-03-18T08:17:41.381Z,9.70
2023-03-18T08:20:08.304Z,10.95
2023-03-18T08:22:34.635Z,11.25
2023-03-18T08:25:00.926Z,7.15
2023-03-18T08:27:27.251Z,7.00
2023-03-18T08:29:53.550Z,6.85
2023-03-18T08:32:19.905Z,8.27
2023-03-18T08:34:47.708Z,6.28
2023-03-18T08:37:13.999Z,6.93
2023-03-18T08:39:40.387Z,6.13
2023-03-18T08:42:07.189Z,9.25
2023-03-18T08:44:33.481Z,7.32
2023-03-18T08:46:59.787Z,9.73
2023-03-18T08:49:26.064Z,5.93
2023-03-18T08:51:52.366Z,9.00
2023-03-18T08:54:19.538Z,7.60
2023-03-18T08:56:45.848Z,9.48
2023-03-18T08:59:12.150Z,7.63
2023-03-18T09:01:38.543Z,7.32
2023-03-18T09:04:05.023Z,7.43
2023-03-18T09:06:31.428Z,7.03
2023-03-18T09:08:57.766Z,8.07
2023-03-18T09:11:24.639Z,8.23
2023-03-18T09:13:51.700Z,7.07
2023-03-18T09:18:45.908Z,6.82
2023-03-18T09:21:13.369Z,7.55
2023-03-18T09:23:39.711Z,7.40
2023-03-18T09:26:06.021Z,7.68
2023-03-18T09:28:32.349Z,8.50
2023-03-18T09:30:58.759Z,11.88
2023-03-18T09:33:25.088Z,7.43
2023-03-18T09:35:51.426Z,7.18
2023-03-18T09:38:19.425Z,9.07
2023-03-18T09:41:01.800Z,10.43
2023-03-18T09:43:28.044Z,7.30
2023-03-18T09:46:13.384Z,6.68
2023-03-18T09:48:49.264Z,8.02
2023-03-18T09:51:33.683Z,6.82
2023-03-18T09:54:12.286Z,7.95
2023-03-18T09:56:39.552Z,8.30
2023-03-18T09:59:17.113Z,8.98
2023-03-18T10:01:46.521Z,7.13
2023-03-18T10:04:23.558Z,13.48
2023-03-18T10:06:56.636Z,26.90
2023-03-18T10:12:06.434Z,8.88
2023-03-18T10:14:37.200Z,10.70
2023-03-18T10:17:17.421Z,8.90
2023-03-18T10:19:57.294Z,9.50
2023-03-18T10:22:32.516Z,8.10
2023-03-18T10:25:16.443Z,12.52
2023-03-18T10:27:54.465Z,6.72
2023-03-18T10:30:39.235Z,8.45
2023-03-18T10:33:22.378Z,8.52
2023-03-18T10:36:01.681Z,7.13
2023-03-18T10:38:33.922Z,6.75
2023-03-18T10:41:01.214Z,8.85
2023-03-18T10:43:31.461Z,6.15
2023-03-18T10:46:05.712Z,9.90
2023-03-18T10:48:50.190Z,10.43
2023-03-18T10:51:39.687Z,7.90
2023-03-18T10:54:27.196Z,10.57
2023-03-18T10:56:54.609Z,7.03
2023-03-18T10:59:23.842Z,8.90
2023-03-18T11:01:59.476Z,8.95
2023-03-18T11:04:28.029Z,7.22
2023-03-18T11:07:03.478Z,8.18
2023-03-18T11:09:32.426Z,11.00
2023-03-18T11:12:05.529Z,6.63
2023-03-18T11:14:32.829Z,8.50
2023-03-18T11:17:17.845Z,6.88
2023-03-18T11:22:25.184Z,8.80
2023-03-18T11:25:01.803Z,7.28
2023-03-18T11:27:34.287Z,6.95
2023-03-18T11:30:11.155Z,7.47
2023-03-18T11:32:54.071Z,9.75
2023-03-18T11:35:23.948Z,11.07
2023-03-18T11:37:50.630Z,8.23
2023-03-18T11:40:25.487Z,10.38
2023-03-18T11:42:57.992Z,6.88
2023-03-18T11:45:34.407Z,7.05
2023-03-18T11:48:01.678Z,9.80
2023-03-18T11:50:42.838Z,9.00
2023-03-18T11:53:09.068Z,9.77
2023-03-18T11:56:00.001Z,7.90
2023-03-18T11:58:52.855Z,6.30
2023-03-18T12:01:49.226Z,11.18
2023-03-18T12:04:24.332Z,7.93
2023-03-18T12:07:03.778Z,5.70
2023-03-18T12:09:53.993Z,6.47
2023-03-18T12:13:01.481Z,5.28
2023-03-18T12:15:38.535Z,6.30
2023-03-18T12:18:19.920Z,6.18
2023-03-18T12:20:50.271Z,7.60
2023-03-18T12:23:36.888Z,7.70
2023-03-18T12:26:07.804Z,6.00
2023-03-18T12:28:51.829Z,5.80
2023-03-18T12:31:49.242Z,7.72
2023-03-18T12:34:51.011Z,7.00
2023-03-18T12:37:26.178Z,7.13
2023-03-18T12:40:00.077Z,6.30
2023-03-18T12:42:38.415Z,7.60
2023-03-18T12:45:24.581Z,6.97
2023-03-18T12:48:08.072Z,5.95
2023-03-18T12:50:39.670Z,7.72
2023-03-18T12:53:17.228Z,7.57
2023-03-18T12:55:48.193Z,7.47
2023-03-18T12:58:19.264Z,9.32
2023-03-18T13:00:59.331Z,7.35
2023-03-18T13:04:00.135Z,5.60
2023-03-18T13:06:35.171Z,5.30
2023-03-18T13:09:05.376Z,7.07
2023-03-18T13:12:02.733Z,6.22
2023-03-18T13:14:57.120Z,5.32
2023-03-18T13:17:49.675Z,7.43
2023-03-18T13:20:29.263Z,5.82
2023-03-18T13:23:07.876Z,7.15
2023-03-18T13:25:44.743Z,6.35
2023-03-18T13:28:23.005Z,6.90
2023-03-18T13:31:04.640Z,7.40
2023-03-18T13:33:58.791Z,7.93
2023-03-18T13:36:43.131Z,7.80
2023-03-18T13:39:28.298Z,6.53
2023-03-18T13:42:38.408Z,6.85
2023-03-18T13:45:19.926Z,9.80
2023-03-18T13:47:46.280Z,6.07
2023-03-18T13:50:18.609Z,6.10
2023-03-18T13:52:46.634Z,5.25
2023-03-18T13:55:34.852Z,8.23
2023-03-18T13:58:04.016Z,6.78
2023-03-18T14:00:34.523Z,7.45
2023-03-18T14:03:19.727Z,7.28
2023-03-18T14:05:47.310Z,9.27
2023-03-18T14:08:42.972Z,6.85
2023-03-18T14:11:15.147Z,7.10
2023-03-18T14:13:41.488Z,9.38
2023-03-18T14:16:13.624Z,7.32
2023-03-18T14:18:40.583Z,6.32
2023-03-18T14:21:23.806Z,8.35
2023-03-18T14:24:13.221Z,6.35
2023-03-18T14:26:40.130Z,6.47
2023-03-18T14:29:06.359Z,6.25
2023-03-18T14:31:38.696Z,6.10
2023-03-18T14:34:04.971Z,7.38
2023-03-18T14:36:44.793Z,6.00
2023-03-18T14:39:18.023Z,7.47
2023-03-18T14:41:48.635Z,6.10
2023-03-18T14:44:26.865Z,6.82
2023-03-18T14:46:59.205Z,6.88
2023-03-18T14:49:32.594Z,7.40
2023-03-18T14:52:00.436Z,7.63
2023-03-18T14:54:31.003Z,6.05
2023-03-18T14:56:57.281Z,6.35
2023-03-18T14:59:25.120Z,6.80
2023-03-18T15:01:51.762Z,5.32
2023-03-18T15:06:45.890Z,5.80
2023-03-18T15:09:23.543Z,5.88
2023-03-18T15:11:49.930Z,4.60
2023-03-18T15:14:20.548Z,5.53
2023-03-18T15:16:52.039Z,5.72
2023-03-18T15:19:19.437Z,6.65
2023-03-18T15:21:45.819Z,6.07
2023-03-18T15:24:18.785Z,5.47
2023-03-18T15:26:45.625Z,5.45
2023-03-18T15:29:32.734Z,4.85
2023-03-18T15:32:26.111Z,5.53
2023-03-18T15:34:55.792Z,6.45
2023-03-18T15:37:35.842Z,5.00
2023-03-18T15:40:54.094Z,5.78
2023-03-18T15:43:38.641Z,4.88
2023-03-18T15:46:24.704Z,6.75
2023-03-18T15:48:54.756Z,5.35
2023-03-18T15:51:28.744Z,5.93
2023-03-18T15:54:05.400Z,6.57
2023-03-18T15:56:34.293Z,6.18
2023-03-18T15:59:07.061Z,7.68
2023-03-18T16:01:34.516Z,4.45
2023-03-18T16:04:02.425Z,5.40
2023-03-18T16:06:28.720Z,6.97
2023-03-18T16:08:55.061Z,7.10
2023-03-18T16:11:21.415Z,5.75
2023-03-18T16:13:48.374Z,5.65
2023-03-18T16:16:26.114Z,6.55
2023-03-18T16:18:52.390Z,5.38
2023-03-18T16:21:18.699Z,5.53
2023-03-18T16:23:45.050Z,6.47
2023-03-18T16:26:16.744Z,6.32
2023-03-18T16:28:46.579Z,5.63
2023-03-18T16:31:14.152Z,9.68
2023-03-18T16:33:40.521Z,8.95
2023-03-18T16:36:07.470Z,5.35
2023-03-18T16:38:33.878Z,7.32
2023-03-18T16:41:00.446Z,6.70
2023-03-18T16:43:30.071Z,7.70
2023-03-18T16:46:01.928Z,8.48
2023-03-18T16:48:28.319Z,6.22
2023-03-18T16:50:56.886Z,6.38
2023-03-18T16:53:29.213Z,6.75
2023-03-18T16:55:58.227Z,6.60
2023-03-18T16:58:34.442Z,5.45
2023-03-18T17:01:04.987Z,6.43
2023-03-18T17:03:31.664Z,9.57
2023-03-18T17:05:57.975Z,9.95
2023-03-18T17:08:24.438Z,9.70
2023-03-18T17:10:55.477Z,7.22
2023-03-18T17:13:24.949Z,8.23
2023-03-18T17:15:51.505Z,10.18
2023-03-18T17:18:20.527Z,8.13
2023-03-18T17:20:47.541Z,10.43
2023-03-18T17:23:21.539Z,8.52
2023-03-18T17:25:58.645Z,8.52
2023-03-18T17:28:32.706Z,10.57
2023-03-18T17:30:59.085Z,13.13
2023-03-18T17:33:28.794Z,13.00
2023-03-18T17:35:55.406Z,10.25
2023-03-18T17:38:21.986Z,11.73
2023-03-18T17:40:49.040Z,12.55
2023-03-18T17:43:31.514Z,13.43
2023-03-18T17:45:58.963Z,13.90
2023-03-18T17:48:27.556Z,16.45
2023-03-18T17:50:59.938Z,12.52
2023-03-18T17:53:31.915Z,13.75
2023-03-18T17:55:58.382Z,19.25
2023-03-18T17:58:27.653Z,17.98
2023-03-18T18:01:03.456Z,16.17
2023-03-18T18:03:30.553Z,15.98
2023-03-18T18:05:57.870Z,17.52
2023-03-18T18:08:25.074Z,16.73
2023-03-18T18:11:01.026Z,18.00
2023-03-18T18:13:28.664Z,14.35
2023-03-18T18:15:55.053Z,16.77
2023-03-18T18:18:23.616Z,16.50
2023-03-18T18:20:55.464Z,17.83
2023-03-18T18:23:26.017Z,15.98
2023-03-18T18:25:52.389Z,19.45
2023-03-18T18:28:21.551Z,17.58
2023-03-18T18:30:49.573Z,19.15
2023-03-18T18:33:16.655Z,18.85
2023-03-18T18:35:43.156Z,15.23
2023-03-18T18:38:09.528Z,14.05
2023-03-18T18:40:36.049Z,13.13
2023-03-18T18:43:02.621Z,14.35
2023-03-18T18:45:28.953Z,13.60
2023-03-18T18:47:56.469Z,14.07
2023-03-18T18:50:28.115Z,19.52
2023-03-18T18:52:54.482Z,17.83
2023-03-18T18:55:20.971Z,17.63
2023-03-18T18:57:47.347Z,14.48
2023-03-18T19:00:22.806Z,16.08
2023-03-18T19:02:52.590Z,15.82
2023-03-18T19:05:19.045Z,12.77
2023-03-18T19:07:45.391Z,17.08
2023-03-18T19:10:17.001Z,15.63
2023-03-18T19:12:43.994Z,13.57
2023-03-18T19:15:12.464Z,12.88
2023-03-18T19:17:40.615Z,15.48
2023-03-18T19:20:25.874Z,15.40
2023-03-18T19:25:22.531Z,12.55
2023-03-18T19:27:48.977Z,12.45
2023-03-18T19:30:23.690Z,16.08
2023-03-18T19:32:50.682Z,13.70
2023-03-18T19:35:17.129Z,13.35
2023-03-18T19:37:45.306Z,12.18
2023-03-18T19:40:22.113Z,15.45
2023-03-18T19:42:48.505Z,22.60
2023-03-18T19:45:15.043Z,20.13
2023-03-18T19:47:42.122Z,18.95
2023-03-18T19:50:19.767Z,26.42
2023-03-18T19:52:46.358Z,23.33
2023-03-18T19:55:18.946Z,33.20
2023-03-18T19:57:49.827Z,21.65
2023-03-18T20:00:24.724Z,13.15
2023-03-18T20:02:51.302Z,18.25
2023-03-18T20:05:20.468Z,35.38
2023-03-18T20:07:46.859Z,19.23
2023-03-18T20:10:14.419Z,25.77
2023-03-18T20:12:43.207Z,25.17
2023-03-18T20:15:22.319Z,30.70
2023-03-18T20:17:50.395Z,29.75
2023-03-18T20:20:28.738Z,30.55
2023-03-18T20:23:13.582Z,34.33
2023-03-18T20:25:41.832Z,29.58
2023-03-18T20:28:14.517Z,26.83
2023-03-18T20:30:41.477Z,22.55
2023-03-18T20:33:08.192Z,22.30
2023-03-18T20:35:38.004Z,24.10
2023-03-18T20:38:12.902Z,22.27
2023-03-18T20:40:39.216Z,45.50
2023-03-18T20:43:05.547Z,45.95
2023-03-18T20:45:32.120Z,35.17
2023-03-18T20:47:58.737Z,28.92
2023-03-18T20:50:28.076Z,36.15
2023-03-18T20:52:54.403Z,27.02
2023-03-18T20:55:27.300Z,18.63
2023-03-18T20:57:54.187Z,16.90
2023-03-18T21:00:23.495Z,11.43
2023-03-18T21:02:52.356Z,40.88
2023-03-18T21:05:19.055Z,29.45
2023-03-18T21:07:45.580Z,14.10
2023-03-18T21:10:16.583Z,13.77
2023-03-18T21:12:45.842Z,27.35
2023-03-18T21:15:18.611Z,14.48
2023-03-18T21:17:45.067Z,13.15
2023-03-18T21:20:22.280Z,12.07
2023-03-18T21:22:50.620Z,18.65
2023-03-18T21:25:22.779Z,22.52
2023-03-18T21:27:50.075Z,12.52
2023-03-18T21:30:20.468Z,14.52
2023-03-18T21:32:46.842Z,18.45
2023-03-18T21:35:24.858Z,18.45
2023-03-18T21:37:51.991Z,15.05
2023-03-18T21:40:23.733Z,13.90
2023-03-18T21:42:50.830Z,15.07
2023-03-18T21:47:45.281Z,12.82
2023-03-18T21:50:25.973Z,10.57
2023-03-18T21:52:53.714Z,11.30
2023-03-18T21:55:21.078Z,13.90
2023-03-18T21:57:48.961Z,12.02
2023-03-18T22:00:17.681Z,14.93
2023-03-18T22:02:44.006Z,12.23
2023-03-18T22:05:14.874Z,13.55
2023-03-18T22:07:41.389Z,14.23
2023-03-18T22:10:08.189Z,13.98
2023-03-18T22:12:34.644Z,16.42
2023-03-18T22:15:01.293Z,13.50
2023-03-18T22:17:29.446Z,16.45
2023-03-18T22:19:57.234Z,14.85
2023-03-18T22:22:26.819Z,13.95
2023-03-18T22:25:00.367Z,16.15
2023-03-18T22:27:29.273Z,14.80
2023-03-18T22:30:01.662Z,17.45
2023-03-18T22:32:44.315Z,16.25
2023-03-18T22:35:19.101Z,17.85
2023-03-18T22:37:45.988Z,14.45
2023-03-18T22:40:29.767Z,17.80
2023-03-18T22:43:01.152Z,15.40
2023-03-18T22:45:29.835Z,17.30
2023-03-18T22:47:59.188Z,15.35
2023-03-18T22:50:28.092Z,17.17
2023-03-18T22:53:19.558Z,17.50
2023-03-18T22:58:26.224Z,18.25
2023-03-18T23:00:53.574Z,17.95
2023-03-18T23:03:25.466Z,17.05
2023-03-18T23:05:53.140Z,16.63
2023-03-18T23:08:20.821Z,16.38
2023-03-18T23:10:49.141Z,14.20
2023-03-18T23:13:17.085Z,15.95
2023-03-18T23:15:44.300Z,14.65
2023-03-18T23:18:15.483Z,15.70
2023-03-18T23:20:44.312Z,15.70
2023-03-18T23:23:10.973Z,13.75
2023-03-18T23:25:37.942Z,14.00
2023-03-18T23:28:04.465Z,13.55
2023-03-18T23:30:31.176Z,14.07
2023-03-18T23:32:57.735Z,14.50
2023-03-18T23:35:24.106Z,13.85
2023-03-18T23:37:50.427Z,12.80
2023-03-18T23:40:16.779Z,13.02
2023-03-18T23:42:43.918Z,14.63
2023-03-18T23:45:11.454Z,13.88
2023-03-18T23:47:37.916Z,14.27
2023-03-18T23:50:05.901Z,12.10
2023-03-18T23:52:32.364Z,13.32
2023-03-18T23:54:58.778Z,13.90
2023-03-18T23:57:25.408Z,14.23
2023-03-18T23:59:51.731Z,16.60
